sensor_id;sensor_type;location;lat;lon;timestamp;P1;durP1;ratioP1;P2;durP2;ratioP2
80732;SDS011;70130;44.534;18.678;2023-09-18T00:01:18;51.10;;;42.85;;
80732;SDS011;70130;44.534;18.678;2023-09-18T00:03:48;51.35;;;41.20;;
80732;SDS011;70130;44.534;18.678;2023-09-18T00:06:13;55.42;;;43.85;;
80732;SDS011;70130;44.534;18.678;2023-09-18T00:08:42;54.97;;;43.15;;
80732;SDS011;70130;44.534;18.678;2023-09-18T00:11:10;55.38;;;43.97;;
80732;SDS011;70130;44.534;18.678;2023-09-18T00:13:39;54.83;;;44.70;;
80732;SDS011;70130;44.534;18.678;2023-09-18T00:16:05;55.38;;;42.53;;
80732;SDS011;70130;44.534;18.678;2023-09-18T00:18:33;52.95;;;43.08;;
80732;SDS011;70130;44.534;18.678;2023-09-18T00:21:02;52.15;;;42.67;;
80732;SDS011;70130;44.534;18.678;2023-09-18T00:23:28;52.75;;;43.03;;
80732;SDS011;70130;44.534;18.678;2023-09-18T00:25:53;51.95;;;41.25;;
80732;SDS011;70130;44.534;18.678;2023-09-18T00:28:19;50.97;;;41.92;;
80732;SDS011;70130;44.534;18.678;2023-09-18T00:30:48;49.78;;;42.80;;
80732;SDS011;70130;44.534;18.678;2023-09-18T00:33:17;54.20;;;43.53;;
80732;SDS011;70130;44.534;18.678;2023-09-18T00:35:49;50.72;;;41.92;;
80732;SDS011;70130;44.534;18.678;2023-09-18T00:38:18;51.45;;;43.17;;
80732;SDS011;70130;44.534;18.678;2023-09-18T00:40:44;50.22;;;41.90;;
80732;SDS011;70130;44.534;18.678;2023-09-18T00:43:10;49.72;;;41.08;;
80732;SDS011;70130;44.534;18.678;2023-09-18T00:45:44;50.22;;;40.67;;
80732;SDS011;70130;44.534;18.678;2023-09-18T00:48:11;50.10;;;40.03;;
80732;SDS011;70130;44.534;18.678;2023-09-18T00:50:40;51.33;;;40.35;;
80732;SDS011;70130;44.534;18.678;2023-09-18T00:53:10;52.72;;;41.88;;
80732;SDS011;70130;44.534;18.678;2023-09-18T00:55:41;51.00;;;40.22;;
80732;SDS011;70130;44.534;18.678;2023-09-18T00:58:07;47.80;;;39.58;;
80732;SDS011;70130;44.534;18.678;2023-09-18T01:00:33;50.97;;;39.88;;
80732;SDS011;70130;44.534;18.678;2023-09-18T01:05:51;50.97;;;41.55;;
80732;SDS011;70130;44.534;18.678;2023-09-18T01:08:19;48.13;;;39.67;;
80732;SDS011;70130;44.534;18.678;2023-09-18T01:13:45;57.55;;;42.22;;
80732;SDS011;70130;44.534;18.678;2023-09-18T01:16:35;51.25;;;42.08;;
80732;SDS011;70130;44.534;18.678;2023-09-18T01:19:43;50.88;;;41.20;;
80732;SDS011;70130;44.534;18.678;2023-09-18T01:22:14;54.00;;;42.40;;
80732;SDS011;70130;44.534;18.678;2023-09-18T01:24:42;52.05;;;42.88;;
80732;SDS011;70130;44.534;18.678;2023-09-18T01:27:14;51.60;;;41.03;;
80732;SDS011;70130;44.534;18.678;2023-09-18T01:29:45;51.78;;;41.65;;
80732;SDS011;70130;44.534;18.678;2023-09-18T01:32:12;50.50;;;40.30;;
80732;SDS011;70130;44.534;18.678;2023-09-18T01:34:48;48.47;;;39.08;;
80732;SDS011;70130;44.534;18.678;2023-09-18T01:37:17;53.13;;;40.65;;
80732;SDS011;70130;44.534;18.678;2023-09-18T01:39:50;48.00;;;39.97;;
80732;SDS011;70130;44.534;18.678;2023-09-18T01:42:28;47.10;;;39.05;;
80732;SDS011;70130;44.534;18.678;2023-09-18T01:44:57;48.60;;;39.00;;
80732;SDS011;70130;44.534;18.678;2023-09-18T01:47:26;49.40;;;38.47;;
80732;SDS011;70130;44.534;18.678;2023-09-18T01:49:55;49.47;;;39.75;;
80732;SDS011;70130;44.534;18.678;2023-09-18T01:52:24;49.15;;;40.20;;
80732;SDS011;70130;44.534;18.678;2023-09-18T01:54:58;51.97;;;40.45;;
80732;SDS011;70130;44.534;18.678;2023-09-18T01:57:25;47.13;;;38.40;;
80732;SDS011;70130;44.534;18.678;2023-09-18T01:59:54;48.78;;;39.05;;
80732;SDS011;70130;44.534;18.678;2023-09-18T02:02:22;48.92;;;39.17;;
80732;SDS011;70130;44.534;18.678;2023-09-18T02:04:49;47.55;;;38.20;;
80732;SDS011;70130;44.534;18.678;2023-09-18T02:07:18;46.22;;;36.67;;
80732;SDS011;70130;44.534;18.678;2023-09-18T02:09:46;45.10;;;36.95;;
80732;SDS011;70130;44.534;18.678;2023-09-18T02:12:12;46.05;;;35.67;;
80732;SDS011;70130;44.534;18.678;2023-09-18T02:14:43;45.85;;;36.25;;
80732;SDS011;70130;44.534;18.678;2023-09-18T02:17:15;48.05;;;36.55;;
80732;SDS011;70130;44.534;18.678;2023-09-18T02:19:44;46.75;;;36.95;;
80732;SDS011;70130;44.534;18.678;2023-09-18T02:22:12;46.83;;;36.50;;
80732;SDS011;70130;44.534;18.678;2023-09-18T02:24:41;43.78;;;34.90;;
80732;SDS011;70130;44.534;18.678;2023-09-18T02:27:09;47.67;;;35.97;;
80732;SDS011;70130;44.534;18.678;2023-09-18T02:29:36;42.78;;;35.30;;
80732;SDS011;70130;44.534;18.678;2023-09-18T02:32:05;45.60;;;35.85;;
80732;SDS011;70130;44.534;18.678;2023-09-18T02:34:34;45.35;;;36.42;;
80732;SDS011;70130;44.534;18.678;2023-09-18T02:37:02;42.60;;;34.90;;
80732;SDS011;70130;44.534;18.678;2023-09-18T02:39:31;47.80;;;36.92;;
80732;SDS011;70130;44.534;18.678;2023-09-18T02:41:58;44.40;;;35.33;;
80732;SDS011;70130;44.534;18.678;2023-09-18T02:44:26;45.88;;;35.45;;
80732;SDS011;70130;44.534;18.678;2023-09-18T02:46:55;45.60;;;35.70;;
80732;SDS011;70130;44.534;18.678;2023-09-18T02:49:23;44.30;;;35.50;;
80732;SDS011;70130;44.534;18.678;2023-09-18T02:51:52;43.22;;;35.08;;
80732;SDS011;70130;44.534;18.678;2023-09-18T02:54:20;43.33;;;33.60;;
80732;SDS011;70130;44.534;18.678;2023-09-18T02:56:49;45.63;;;34.03;;
80732;SDS011;70130;44.534;18.678;2023-09-18T02:59:18;43.00;;;33.65;;
80732;SDS011;70130;44.534;18.678;2023-09-18T03:01:44;42.45;;;34.95;;
80732;SDS011;70130;44.534;18.678;2023-09-18T03:04:13;42.67;;;34.47;;
80732;SDS011;70130;44.534;18.678;2023-09-18T03:06:41;45.15;;;35.65;;
80732;SDS011;70130;44.534;18.678;2023-09-18T03:09:08;44.90;;;36.13;;
80732;SDS011;70130;44.534;18.678;2023-09-18T03:11:37;44.95;;;35.55;;
80732;SDS011;70130;44.534;18.678;2023-09-18T03:14:03;45.50;;;36.03;;
80732;SDS011;70130;44.534;18.678;2023-09-18T03:16:30;46.53;;;36.30;;
80732;SDS011;70130;44.534;18.678;2023-09-18T03:18:58;47.05;;;35.67;;
80732;SDS011;70130;44.534;18.678;2023-09-18T03:21:39;48.63;;;37.30;;
80732;SDS011;70130;44.534;18.678;2023-09-18T03:24:08;46.53;;;37.10;;
80732;SDS011;70130;44.534;18.678;2023-09-18T03:26:37;45.45;;;35.53;;
80732;SDS011;70130;44.534;18.678;2023-09-18T03:29:06;46.38;;;36.22;;
80732;SDS011;70130;44.534;18.678;2023-09-18T03:31:32;41.30;;;33.75;;
80732;SDS011;70130;44.534;18.678;2023-09-18T03:33:57;43.70;;;35.13;;
80732;SDS011;70130;44.534;18.678;2023-09-18T03:36:23;44.38;;;35.45;;
80732;SDS011;70130;44.534;18.678;2023-09-18T03:38:52;47.53;;;35.42;;
80732;SDS011;70130;44.534;18.678;2023-09-18T03:41:21;43.30;;;34.75;;
80732;SDS011;70130;44.534;18.678;2023-09-18T03:43:50;44.63;;;34.67;;
80732;SDS011;70130;44.534;18.678;2023-09-18T03:46:15;45.50;;;36.17;;
80732;SDS011;70130;44.534;18.678;2023-09-18T03:48:47;45.58;;;35.78;;
80732;SDS011;70130;44.534;18.678;2023-09-18T03:51:13;46.72;;;35.42;;
80732;SDS011;70130;44.534;18.678;2023-09-18T03:53:41;46.20;;;34.88;;
80732;SDS011;70130;44.534;18.678;2023-09-18T03:56:15;43.08;;;33.65;;
80732;SDS011;70130;44.534;18.678;2023-09-18T03:58:41;47.67;;;36.42;;
80732;SDS011;70130;44.534;18.678;2023-09-18T04:01:07;44.33;;;34.85;;
80732;SDS011;70130;44.534;18.678;2023-09-18T04:03:33;45.75;;;35.35;;
80732;SDS011;70130;44.534;18.678;2023-09-18T04:05:59;46.08;;;34.58;;
80732;SDS011;70130;44.534;18.678;2023-09-18T04:08:24;44.65;;;33.97;;
80732;SDS011;70130;44.534;18.678;2023-09-18T04:10:54;48.42;;;35.15;;
80732;SDS011;70130;44.534;18.678;2023-09-18T04:13:23;42.63;;;33.95;;
80732;SDS011;70130;44.534;18.678;2023-09-18T04:15:50;43.30;;;33.45;;
80732;SDS011;70130;44.534;18.678;2023-09-18T04:18:17;45.17;;;33.28;;
80732;SDS011;70130;44.534;18.678;2023-09-18T04:20:42;46.08;;;34.53;;
80732;SDS011;70130;44.534;18.678;2023-09-18T04:23:19;45.90;;;33.80;;
80732;SDS011;70130;44.534;18.678;2023-09-18T04:25:47;41.75;;;33.63;;
80732;SDS011;70130;44.534;18.678;2023-09-18T04:28:16;43.67;;;33.60;;
80732;SDS011;70130;44.534;18.678;2023-09-18T04:30:52;45.45;;;34.28;;
80732;SDS011;70130;44.534;18.678;2023-09-18T04:33:25;45.00;;;34.58;;
80732;SDS011;70130;44.534;18.678;2023-09-18T04:35:57;47.35;;;33.45;;
80732;SDS011;70130;44.534;18.678;2023-09-18T04:38:25;48.75;;;35.75;;
80732;SDS011;70130;44.534;18.678;2023-09-18T04:40:57;48.50;;;34.08;;
80732;SDS011;70130;44.534;18.678;2023-09-18T04:43:26;43.50;;;33.45;;
80732;SDS011;70130;44.534;18.678;2023-09-18T04:45:58;44.90;;;33.67;;
80732;SDS011;70130;44.534;18.678;2023-09-18T04:48:24;47.58;;;35.65;;
80732;SDS011;70130;44.534;18.678;2023-09-18T04:50:52;51.13;;;34.67;;
80732;SDS011;70130;44.534;18.678;2023-09-18T04:53:19;47.83;;;33.90;;
80732;SDS011;70130;44.534;18.678;2023-09-18T04:55:47;46.30;;;35.25;;
80732;SDS011;70130;44.534;18.678;2023-09-18T04:58:19;43.60;;;34.17;;
80732;SDS011;70130;44.534;18.678;2023-09-18T05:00:45;48.05;;;35.33;;
80732;SDS011;70130;44.534;18.678;2023-09-18T05:03:14;46.90;;;34.85;;
80732;SDS011;70130;44.534;18.678;2023-09-18T05:05:43;51.13;;;36.72;;
80732;SDS011;70130;44.534;18.678;2023-09-18T05:08:09;52.15;;;37.03;;
80732;SDS011;70130;44.534;18.678;2023-09-18T05:10:35;44.45;;;34.58;;
80732;SDS011;70130;44.534;18.678;2023-09-18T05:13:01;49.58;;;36.85;;
80732;SDS011;70130;44.534;18.678;2023-09-18T05:15:28;46.95;;;35.08;;
80732;SDS011;70130;44.534;18.678;2023-09-18T05:17:58;48.60;;;35.03;;
80732;SDS011;70130;44.534;18.678;2023-09-18T05:20:25;50.78;;;33.67;;
80732;SDS011;70130;44.534;18.678;2023-09-18T05:22:51;48.17;;;35.30;;
80732;SDS011;70130;44.534;18.678;2023-09-18T05:25:21;43.30;;;33.67;;
80732;SDS011;70130;44.534;18.678;2023-09-18T05:27:51;45.30;;;34.33;;
80732;SDS011;70130;44.534;18.678;2023-09-18T05:30:25;43.70;;;33.78;;
80732;SDS011;70130;44.534;18.678;2023-09-18T05:32:53;48.40;;;35.03;;
80732;SDS011;70130;44.534;18.678;2023-09-18T05:35:19;49.30;;;36.33;;
80732;SDS011;70130;44.534;18.678;2023-09-18T05:37:46;49.40;;;36.03;;
80732;SDS011;70130;44.534;18.678;2023-09-18T05:40:12;51.97;;;38.40;;
80732;SDS011;70130;44.534;18.678;2023-09-18T05:42:39;53.20;;;38.45;;
80732;SDS011;70130;44.534;18.678;2023-09-18T05:45:11;50.33;;;38.50;;
80732;SDS011;70130;44.534;18.678;2023-09-18T05:47:37;48.20;;;36.17;;
80732;SDS011;70130;44.534;18.678;2023-09-18T05:50:04;46.58;;;35.63;;
80732;SDS011;70130;44.534;18.678;2023-09-18T05:52:32;49.53;;;37.03;;
80732;SDS011;70130;44.534;18.678;2023-09-18T05:54:59;49.97;;;36.63;;
80732;SDS011;70130;44.534;18.678;2023-09-18T05:57:25;52.85;;;37.35;;
80732;SDS011;70130;44.534;18.678;2023-09-18T05:59:56;49.15;;;37.65;;
80732;SDS011;70130;44.534;18.678;2023-09-18T06:02:22;53.00;;;38.90;;
80732;SDS011;70130;44.534;18.678;2023-09-18T06:04:48;51.70;;;38.08;;
80732;SDS011;70130;44.534;18.678;2023-09-18T06:07:14;50.78;;;36.97;;
80732;SDS011;70130;44.534;18.678;2023-09-18T06:09:40;48.53;;;36.90;;
80732;SDS011;70130;44.534;18.678;2023-09-18T06:12:06;54.25;;;36.38;;
80732;SDS011;70130;44.534;18.678;2023-09-18T06:14:32;44.95;;;32.35;;
80732;SDS011;70130;44.534;18.678;2023-09-18T06:17:03;47.63;;;34.10;;
80732;SDS011;70130;44.534;18.678;2023-09-18T06:19:31;46.83;;;34.50;;
80732;SDS011;70130;44.534;18.678;2023-09-18T06:22:01;47.15;;;34.40;;
80732;SDS011;70130;44.534;18.678;2023-09-18T06:24:27;48.53;;;35.65;;
80732;SDS011;70130;44.534;18.678;2023-09-18T06:26:53;47.70;;;35.88;;
80732;SDS011;70130;44.534;18.678;2023-09-18T06:29:19;49.38;;;35.67;;
80732;SDS011;70130;44.534;18.678;2023-09-18T06:31:45;45.65;;;35.58;;
80732;SDS011;70130;44.534;18.678;2023-09-18T06:34:11;45.60;;;35.15;;
80732;SDS011;70130;44.534;18.678;2023-09-18T06:36:37;46.95;;;32.20;;
80732;SDS011;70130;44.534;18.678;2023-09-18T06:39:03;42.50;;;32.50;;
80732;SDS011;70130;44.534;18.678;2023-09-18T06:41:29;48.08;;;33.97;;
80732;SDS011;70130;44.534;18.678;2023-09-18T06:43:54;46.90;;;34.13;;
80732;SDS011;70130;44.534;18.678;2023-09-18T06:46:20;46.35;;;34.22;;
80732;SDS011;70130;44.534;18.678;2023-09-18T06:48:46;45.90;;;34.65;;
80732;SDS011;70130;44.534;18.678;2023-09-18T06:51:15;42.13;;;34.20;;
80732;SDS011;70130;44.534;18.678;2023-09-18T06:53:41;44.45;;;34.08;;
80732;SDS011;70130;44.534;18.678;2023-09-18T06:56:08;43.05;;;32.45;;
80732;SDS011;70130;44.534;18.678;2023-09-18T06:58:34;46.30;;;33.15;;
80732;SDS011;70130;44.534;18.678;2023-09-18T07:01:00;44.10;;;32.83;;
80732;SDS011;70130;44.534;18.678;2023-09-18T07:03:26;40.45;;;30.77;;
80732;SDS011;70130;44.534;18.678;2023-09-18T07:05:52;37.58;;;30.73;;
80732;SDS011;70130;44.534;18.678;2023-09-18T07:08:18;40.35;;;31.33;;
80732;SDS011;70130;44.534;18.678;2023-09-18T07:10:51;42.67;;;30.63;;
80732;SDS011;70130;44.534;18.678;2023-09-18T07:13:17;40.95;;;32.25;;
80732;SDS011;70130;44.534;18.678;2023-09-18T07:15:43;43.10;;;30.55;;
80732;SDS011;70130;44.534;18.678;2023-09-18T07:18:09;31.83;;;27.48;;
80732;SDS011;70130;44.534;18.678;2023-09-18T07:20:39;36.13;;;28.50;;
80732;SDS011;70130;44.534;18.678;2023-09-18T07:23:05;36.55;;;28.52;;
80732;SDS011;70130;44.534;18.678;2023-09-18T07:25:31;39.10;;;27.20;;
80732;SDS011;70130;44.534;18.678;2023-09-18T07:27:56;37.35;;;28.23;;
80732;SDS011;70130;44.534;18.678;2023-09-18T07:30:22;41.03;;;27.75;;
80732;SDS011;70130;44.534;18.678;2023-09-18T07:32:52;32.75;;;25.55;;
80732;SDS011;70130;44.534;18.678;2023-09-18T07:35:26;33.67;;;26.15;;
80732;SDS011;70130;44.534;18.678;2023-09-18T07:37:52;34.17;;;27.80;;
80732;SDS011;70130;44.534;18.678;2023-09-18T07:40:19;34.45;;;26.38;;
80732;SDS011;70130;44.534;18.678;2023-09-18T07:42:44;31.90;;;25.20;;
80732;SDS011;70130;44.534;18.678;2023-09-18T07:45:10;38.22;;;28.70;;
80732;SDS011;70130;44.534;18.678;2023-09-18T07:47:36;33.22;;;26.40;;
80732;SDS011;70130;44.534;18.678;2023-09-18T07:50:02;31.35;;;24.55;;
80732;SDS011;70130;44.534;18.678;2023-09-18T07:52:28;30.17;;;23.58;;
80732;SDS011;70130;44.534;18.678;2023-09-18T07:54:54;30.23;;;23.15;;
80732;SDS011;70130;44.534;18.678;2023-09-18T07:57:20;29.85;;;22.75;;
80732;SDS011;70130;44.534;18.678;2023-09-18T07:59:48;32.53;;;22.23;;
80732;SDS011;70130;44.534;18.678;2023-09-18T08:02:14;32.65;;;23.52;;
80732;SDS011;70130;44.534;18.678;2023-09-18T08:04:40;27.30;;;21.73;;
80732;SDS011;70130;44.534;18.678;2023-09-18T08:07:06;27.80;;;21.73;;
80732;SDS011;70130;44.534;18.678;2023-09-18T08:09:32;25.38;;;21.25;;
80732;SDS011;70130;44.534;18.678;2023-09-18T08:12:02;28.33;;;22.52;;
80732;SDS011;70130;44.534;18.678;2023-09-18T08:14:32;27.98;;;21.88;;
80732;SDS011;70130;44.534;18.678;2023-09-18T08:17:04;27.63;;;22.13;;
80732;SDS011;70130;44.534;18.678;2023-09-18T08:19:33;26.10;;;20.45;;
80732;SDS011;70130;44.534;18.678;2023-09-18T08:21:59;27.05;;;21.88;;
80732;SDS011;70130;44.534;18.678;2023-09-18T08:24:25;24.83;;;20.10;;
80732;SDS011;70130;44.534;18.678;2023-09-18T08:26:51;23.90;;;20.10;;
80732;SDS011;70130;44.534;18.678;2023-09-18T08:29:17;28.30;;;20.25;;
80732;SDS011;70130;44.534;18.678;2023-09-18T08:31:43;24.35;;;19.08;;
80732;SDS011;70130;44.534;18.678;2023-09-18T08:34:09;22.63;;;17.42;;
80732;SDS011;70130;44.534;18.678;2023-09-18T08:36:35;23.67;;;17.80;;
80732;SDS011;70130;44.534;18.678;2023-09-18T08:39:00;23.90;;;18.50;;
80732;SDS011;70130;44.534;18.678;2023-09-18T08:41:27;21.70;;;17.77;;
80732;SDS011;70130;44.534;18.678;2023-09-18T08:43:56;21.87;;;17.20;;
80732;SDS011;70130;44.534;18.678;2023-09-18T08:46:26;22.55;;;17.98;;
80732;SDS011;70130;44.534;18.678;2023-09-18T08:48:52;20.92;;;16.38;;
80732;SDS011;70130;44.534;18.678;2023-09-18T08:51:19;25.08;;;17.75;;
80732;SDS011;70130;44.534;18.678;2023-09-18T08:53:46;23.10;;;16.52;;
80732;SDS011;70130;44.534;18.678;2023-09-18T08:56:12;21.65;;;16.65;;
80732;SDS011;70130;44.534;18.678;2023-09-18T08:58:38;21.98;;;15.43;;
80732;SDS011;70130;44.534;18.678;2023-09-18T09:01:08;20.70;;;14.50;;
80732;SDS011;70130;44.534;18.678;2023-09-18T09:03:36;18.73;;;14.63;;
80732;SDS011;70130;44.534;18.678;2023-09-18T09:06:02;19.58;;;14.95;;
80732;SDS011;70130;44.534;18.678;2023-09-18T09:08:28;22.85;;;14.73;;
80732;SDS011;70130;44.534;18.678;2023-09-18T09:10:54;23.25;;;14.45;;
80732;SDS011;70130;44.534;18.678;2023-09-18T09:13:23;20.08;;;15.05;;
80732;SDS011;70130;44.534;18.678;2023-09-18T09:15:53;23.05;;;13.52;;
80732;SDS011;70130;44.534;18.678;2023-09-18T09:18:23;20.42;;;13.88;;
80732;SDS011;70130;44.534;18.678;2023-09-18T09:20:53;17.23;;;11.63;;
80732;SDS011;70130;44.534;18.678;2023-09-18T09:23:23;17.00;;;13.35;;
80732;SDS011;70130;44.534;18.678;2023-09-18T09:25:50;15.20;;;11.85;;
80732;SDS011;70130;44.534;18.678;2023-09-18T09:28:26;12.07;;;10.02;;
80732;SDS011;70130;44.534;18.678;2023-09-18T09:30:59;14.32;;;11.07;;
80732;SDS011;70130;44.534;18.678;2023-09-18T09:33:29;16.98;;;12.82;;
80732;SDS011;70130;44.534;18.678;2023-09-18T09:35:55;13.43;;;9.60;;
80732;SDS011;70130;44.534;18.678;2023-09-18T09:38:27;11.23;;;9.20;;
80732;SDS011;70130;44.534;18.678;2023-09-18T09:40:57;14.02;;;10.93;;
80732;SDS011;70130;44.534;18.678;2023-09-18T09:43:25;15.93;;;10.10;;
80732;SDS011;70130;44.534;18.678;2023-09-18T09:46:01;27.83;;;18.83;;
80732;SDS011;70130;44.534;18.678;2023-09-18T09:48:27;18.30;;;14.50;;
80732;SDS011;70130;44.534;18.678;2023-09-18T09:50:58;11.48;;;7.78;;
80732;SDS011;70130;44.534;18.678;2023-09-18T09:53:49;8.68;;;7.78;;
80732;SDS011;70130;44.534;18.678;2023-09-18T09:56:16;13.43;;;8.98;;
80732;SDS011;70130;44.534;18.678;2023-09-18T09:59:02;10.45;;;7.97;;
80732;SDS011;70130;44.534;18.678;2023-09-18T10:01:33;9.48;;;8.00;;
80732;SDS011;70130;44.534;18.678;2023-09-18T10:04:02;13.68;;;9.55;;
80732;SDS011;70130;44.534;18.678;2023-09-18T10:06:32;12.18;;;8.80;;
80732;SDS011;70130;44.534;18.678;2023-09-18T10:09:00;8.50;;;7.15;;
80732;SDS011;70130;44.534;18.678;2023-09-18T10:11:33;11.35;;;7.28;;
80732;SDS011;70130;44.534;18.678;2023-09-18T10:14:19;11.57;;;7.65;;
80732;SDS011;70130;44.534;18.678;2023-09-18T10:16:49;9.57;;;7.53;;
80732;SDS011;70130;44.534;18.678;2023-09-18T10:24:33;8.45;;;6.53;;
80732;SDS011;70130;44.534;18.678;2023-09-18T10:27:03;10.75;;;7.30;;
80732;SDS011;70130;44.534;18.678;2023-09-18T10:29:33;9.30;;;6.90;;
80732;SDS011;70130;44.534;18.678;2023-09-18T10:32:03;10.18;;;7.55;;
80732;SDS011;70130;44.534;18.678;2023-09-18T10:34:37;7.47;;;6.13;;
80732;SDS011;70130;44.534;18.678;2023-09-18T10:37:08;10.02;;;6.47;;
80732;SDS011;70130;44.534;18.678;2023-09-18T10:39:39;11.82;;;7.75;;
80732;SDS011;70130;44.534;18.678;2023-09-18T10:42:11;10.35;;;7.07;;
80732;SDS011;70130;44.534;18.678;2023-09-18T10:44:41;9.45;;;6.60;;
80732;SDS011;70130;44.534;18.678;2023-09-18T10:47:09;14.45;;;8.25;;
80732;SDS011;70130;44.534;18.678;2023-09-18T10:49:36;10.25;;;7.57;;
80732;SDS011;70130;44.534;18.678;2023-09-18T10:52:02;15.55;;;8.77;;
80732;SDS011;70130;44.534;18.678;2023-09-18T10:54:30;11.68;;;8.05;;
80732;SDS011;70130;44.534;18.678;2023-09-18T10:57:01;11.82;;;7.07;;
80732;SDS011;70130;44.534;18.678;2023-09-18T10:59:30;12.00;;;7.43;;
80732;SDS011;70130;44.534;18.678;2023-09-18T11:02:03;9.00;;;7.07;;
80732;SDS011;70130;44.534;18.678;2023-09-18T11:04:33;9.43;;;6.90;;
80732;SDS011;70130;44.534;18.678;2023-09-18T11:09:32;9.63;;;7.22;;
80732;SDS011;70130;44.534;18.678;2023-09-18T11:12:08;12.23;;;7.60;;
80732;SDS011;70130;44.534;18.678;2023-09-18T11:20:02;12.02;;;7.53;;
80732;SDS011;70130;44.534;18.678;2023-09-18T11:22:37;10.35;;;7.07;;
80732;SDS011;70130;44.534;18.678;2023-09-18T11:28:15;15.63;;;7.90;;
80732;SDS011;70130;44.534;18.678;2023-09-18T11:33:35;12.40;;;7.78;;
80732;SDS011;70130;44.534;18.678;2023-09-18T11:38:58;11.40;;;6.88;;
80732;SDS011;70130;44.534;18.678;2023-09-18T11:41:30;11.48;;;7.05;;
80732;SDS011;70130;44.534;18.678;2023-09-18T11:44:31;13.07;;;7.70;;
80732;SDS011;70130;44.534;18.678;2023-09-18T11:46:52;12.30;;;7.07;;
80732;SDS011;70130;44.534;18.678;2023-09-18T11:49:22;11.43;;;7.82;;
80732;SDS011;70130;44.534;18.678;2023-09-18T11:51:51;11.60;;;7.32;;
80732;SDS011;70130;44.534;18.678;2023-09-18T11:54:18;12.32;;;7.80;;
80732;SDS011;70130;44.534;18.678;2023-09-18T11:56:44;12.70;;;7.93;;
80732;SDS011;70130;44.534;18.678;2023-09-18T11:59:10;12.05;;;7.70;;
80732;SDS011;70130;44.534;18.678;2023-09-18T12:01:37;12.23;;;7.55;;
80732;SDS011;70130;44.534;18.678;2023-09-18T12:04:06;11.20;;;6.88;;
80732;SDS011;70130;44.534;18.678;2023-09-18T12:06:38;10.13;;;7.80;;
80732;SDS011;70130;44.534;18.678;2023-09-18T12:09:05;9.40;;;7.25;;
80732;SDS011;70130;44.534;18.678;2023-09-18T12:11:32;12.13;;;7.18;;
80732;SDS011;70130;44.534;18.678;2023-09-18T12:14:03;10.30;;;6.90;;
80732;SDS011;70130;44.534;18.678;2023-09-18T12:16:29;10.65;;;7.47;;
80732;SDS011;70130;44.534;18.678;2023-09-18T12:18:55;9.20;;;7.57;;
80732;SDS011;70130;44.534;18.678;2023-09-18T12:21:22;8.88;;;6.45;;
80732;SDS011;70130;44.534;18.678;2023-09-18T12:23:48;10.77;;;6.93;;
80732;SDS011;70130;44.534;18.678;2023-09-18T12:26:15;9.90;;;6.75;;
80732;SDS011;70130;44.534;18.678;2023-09-18T12:28:43;11.90;;;7.32;;
80732;SDS011;70130;44.534;18.678;2023-09-18T12:31:10;9.65;;;6.32;;
80732;SDS011;70130;44.534;18.678;2023-09-18T12:33:37;10.65;;;7.15;;
80732;SDS011;70130;44.534;18.678;2023-09-18T12:36:04;11.07;;;7.00;;
80732;SDS011;70130;44.534;18.678;2023-09-18T12:38:31;13.95;;;6.65;;
80732;SDS011;70130;44.534;18.678;2023-09-18T12:40:58;13.85;;;7.25;;
80732;SDS011;70130;44.534;18.678;2023-09-18T12:43:38;14.55;;;7.35;;
80732;SDS011;70130;44.534;18.678;2023-09-18T12:46:06;10.80;;;6.95;;
80732;SDS011;70130;44.534;18.678;2023-09-18T12:48:36;15.55;;;7.22;;
80732;SDS011;70130;44.534;18.678;2023-09-18T12:51:07;10.50;;;6.65;;
80732;SDS011;70130;44.534;18.678;2023-09-18T12:53:33;11.60;;;7.38;;
80732;SDS011;70130;44.534;18.678;2023-09-18T12:56:09;11.60;;;7.38;;
80732;SDS011;70130;44.534;18.678;2023-09-18T12:58:37;11.35;;;7.10;;
80732;SDS011;70130;44.534;18.678;2023-09-18T13:01:04;13.05;;;8.07;;
80732;SDS011;70130;44.534;18.678;2023-09-18T13:03:35;11.90;;;7.75;;
80732;SDS011;70130;44.534;18.678;2023-09-18T13:06:08;11.68;;;7.82;;
80732;SDS011;70130;44.534;18.678;2023-09-18T13:08:38;11.50;;;8.02;;
80732;SDS011;70130;44.534;18.678;2023-09-18T13:11:07;14.02;;;7.90;;
80732;SDS011;70130;44.534;18.678;2023-09-18T13:13:39;14.20;;;8.15;;
80732;SDS011;70130;44.534;18.678;2023-09-18T13:16:08;11.73;;;7.82;;
80732;SDS011;70130;44.534;18.678;2023-09-18T13:18:43;14.05;;;7.82;;
80732;SDS011;70130;44.534;18.678;2023-09-18T13:21:16;16.05;;;8.45;;
80732;SDS011;70130;44.534;18.678;2023-09-18T13:23:45;17.55;;;9.35;;
80732;SDS011;70130;44.534;18.678;2023-09-18T13:26:11;14.20;;;7.63;;
80732;SDS011;70130;44.534;18.678;2023-09-18T13:28:37;14.75;;;8.57;;
80732;SDS011;70130;44.534;18.678;2023-09-18T13:31:05;15.10;;;8.80;;
80732;SDS011;70130;44.534;18.678;2023-09-18T13:33:32;15.57;;;8.25;;
80732;SDS011;70130;44.534;18.678;2023-09-18T13:35:58;12.10;;;7.68;;
80732;SDS011;70130;44.534;18.678;2023-09-18T13:38:24;14.05;;;9.25;;
80732;SDS011;70130;44.534;18.678;2023-09-18T13:40:51;12.77;;;8.90;;
80732;SDS011;70130;44.534;18.678;2023-09-18T13:43:18;13.55;;;8.38;;
80732;SDS011;70130;44.534;18.678;2023-09-18T13:45:47;12.70;;;8.30;;
80732;SDS011;70130;44.534;18.678;2023-09-18T13:48:13;12.02;;;8.38;;
80732;SDS011;70130;44.534;18.678;2023-09-18T13:50:40;19.45;;;8.55;;
80732;SDS011;70130;44.534;18.678;2023-09-18T13:53:06;16.30;;;9.50;;
80732;SDS011;70130;44.534;18.678;2023-09-18T13:55:32;12.57;;;8.73;;
80732;SDS011;70130;44.534;18.678;2023-09-18T13:57:59;11.55;;;7.35;;
80732;SDS011;70130;44.534;18.678;2023-09-18T14:00:24;15.18;;;8.00;;
80732;SDS011;70130;44.534;18.678;2023-09-18T14:02:51;12.88;;;7.78;;
80732;SDS011;70130;44.534;18.678;2023-09-18T14:05:17;12.07;;;8.15;;
80732;SDS011;70130;44.534;18.678;2023-09-18T14:07:42;12.38;;;7.97;;
80732;SDS011;70130;44.534;18.678;2023-09-18T14:10:08;19.30;;;7.70;;
80732;SDS011;70130;44.534;18.678;2023-09-18T14:12:38;11.80;;;8.15;;
80732;SDS011;70130;44.534;18.678;2023-09-18T14:15:07;12.40;;;7.32;;
80732;SDS011;70130;44.534;18.678;2023-09-18T14:17:34;12.07;;;7.43;;
80732;SDS011;70130;44.534;18.678;2023-09-18T14:20:00;13.40;;;7.72;;
80732;SDS011;70130;44.534;18.678;2023-09-18T14:22:26;11.48;;;7.45;;
80732;SDS011;70130;44.534;18.678;2023-09-18T14:24:51;15.93;;;7.85;;
80732;SDS011;70130;44.534;18.678;2023-09-18T14:27:17;16.50;;;8.18;;
80732;SDS011;70130;44.534;18.678;2023-09-18T14:29:43;15.90;;;8.48;;
80732;SDS011;70130;44.534;18.678;2023-09-18T14:32:08;14.73;;;7.82;;
80732;SDS011;70130;44.534;18.678;2023-09-18T14:34:35;16.75;;;8.43;;
80732;SDS011;70130;44.534;18.678;2023-09-18T14:37:01;13.23;;;8.25;;
80732;SDS011;70130;44.534;18.678;2023-09-18T14:39:33;18.30;;;8.60;;
80732;SDS011;70130;44.534;18.678;2023-09-18T14:41:59;12.25;;;7.70;;
80732;SDS011;70130;44.534;18.678;2023-09-18T14:44:25;15.18;;;8.38;;
80732;SDS011;70130;44.534;18.678;2023-09-18T14:46:53;10.50;;;7.82;;
80732;SDS011;70130;44.534;18.678;2023-09-18T14:49:19;15.10;;;8.93;;